Time;durP1;ratioP1;P1;durP2;ratioP2;P2;SDS_P1;SDS_P2;PMS_P1;PMS_P2;Temp;Humidity;BMP_temperature;BMP_pressure;BME280_temperature;BME280_humidity;BME280_pressure;Samples;Min_cycle;Max_cycle;Signal;HPM_P1;HPM_P2
2020/12/21 00:01:41;;;;;;;25.87;23.07;;;;;;;3.85;70.81;98716.88;8335823;28;20219;-74
2020/12/21 00:05:43;;;;;;;26.33;23.53;;;;;;;3.79;71.79;98711.81;8336396;28;20220;-74
2020/12/21 00:09:44;;;;;;;28.90;25.73;;;;;;;3.58;72.01;98710.19;8336414;28;20239;-74
2020/12/21 00:13:46;;;;;;;27.67;24.47;;;;;;;3.48;73.21;98708.50;8580172;22;20229;-74
2020/12/21 00:17:49;;;;;;;27.63;24.73;;;;;;;3.84;72.62;98696.38;8335750;28;20235;-75
2020/12/21 00:21:52;;;;;;;29.83;25.37;;;;;;;3.75;71.83;98712.69;8335504;28;20219;-75
2020/12/21 00:25:53;;;;;;;28.23;25.20;;;;;;;3.77;71.95;98704.97;8335432;28;20520;-75
2020/12/21 00:29:55;;;;;;;27.10;24.20;;;;;;;3.79;72.18;98714.38;8334474;28;20244;-75
2020/12/21 00:33:59;;;;;;;29.17;25.93;;;;;;;3.58;73.10;98717.00;8335532;28;20224;-75
2020/12/21 00:38:01;;;;;;;28.03;24.80;;;;;;;3.74;72.09;98708.41;8332841;28;20232;-75
2020/12/21 00:42:03;;;;;;;27.03;24.03;;;;;;;3.26;74.04;98708.59;8334556;28;20296;-75
2020/12/21 00:46:05;;;;;;;26.93;23.80;;;;;;;3.69;72.37;98705.00;8334725;28;20718;-77
2020/12/21 00:50:07;;;;;;;25.97;22.30;;;;;;;3.89;71.81;98702.34;8335813;28;20245;-75
2020/12/21 00:54:09;;;;;;;25.33;22.57;;;;;;;3.92;72.01;98705.75;8335983;28;20228;-75
2020/12/21 00:58:11;;;;;;;35.17;29.17;;;;;;;5.51;89.90;98711.19;8335244;28;20197;-75
2020/12/21 01:02:13;;;;;;;26.97;24.03;;;;;;;4.19;72.08;98703.88;8334161;28;20211;-75
2020/12/21 01:06:16;;;;;;;25.60;22.80;;;;;;;4.10;71.95;98706.50;8334968;28;20232;-75
2020/12/21 01:10:19;;;;;;;25.43;22.73;;;;;;;3.88;72.35;98719.44;8336485;28;20227;-75
2020/12/21 01:14:21;;;;;;;24.27;21.77;;;;;;;3.94;72.18;98726.25;8329419;28;20244;-76
2020/12/21 01:18:23;;;;;;;23.93;21.43;;;;;;;3.85;72.40;98739.09;8332762;28;20560;-76
2020/12/21 01:22:26;;;;;;;26.27;22.70;;;;;;;4.02;72.00;98739.88;8332599;28;20200;-75
2020/12/21 01:26:28;;;;;;;25.03;22.33;;;;;;;3.97;72.24;98735.63;8331847;28;20236;-75
2020/12/21 01:30:30;;;;;;;24.27;21.77;;;;;;;4.04;72.02;98727.03;8329524;28;20216;-75
2020/12/21 01:34:32;;;;;;;23.97;21.57;;;;;;;3.96;72.12;98732.22;8328469;28;20679;-76
2020/12/21 01:38:34;;;;;;;24.57;21.03;;;;;;;3.76;73.05;98728.91;8326854;28;20201;-75
2020/12/21 01:42:36;;;;;;;23.50;21.03;;;;;;;3.80;72.32;98720.34;8331846;28;20208;-75
2020/12/21 01:46:39;;;;;;;22.40;20.10;;;;;;;3.88;72.83;98721.13;8331921;28;20233;-75
2020/12/21 01:50:41;;;;;;;22.57;20.17;;;;;;;3.85;72.73;98731.41;8333146;28;20208;-75
2020/12/21 01:54:44;;;;;;;24.37;21.77;;;;;;;3.79;72.91;98721.19;8332654;28;20200;-75
2020/12/21 01:58:46;;;;;;;24.53;21.87;;;;;;;3.50;73.69;98727.28;8332682;28;20609;-75
2020/12/21 02:02:47;;;;;;;23.33;20.83;;;;;;;3.75;73.10;98734.88;8332239;28;20204;-75
2020/12/21 02:06:49;;;;;;;22.07;19.60;;;;;;;3.98;72.92;98716.81;8331402;28;20223;-75
2020/12/21 02:10:52;;;;;;;21.90;19.70;;;;;;;4.13;72.36;98718.44;8311475;28;572601;-75
2020/12/21 02:14:53;;;;;;;23.63;20.57;;;;;;;3.95;72.62;98724.53;8329005;28;20208;-76
2020/12/21 02:18:55;;;;;;;21.13;18.90;;;;;;;3.89;72.59;98723.69;8327740;28;20223;-76
2020/12/21 02:22:58;;;;;;;22.07;19.77;;;;;;;4.13;72.18;98716.72;8328531;28;20567;-76
2020/12/21 02:26:59;;;;;;;24.23;20.23;;;;;;;3.82;73.80;98721.19;8332119;28;20228;-76
2020/12/21 02:31:01;;;;;;;22.00;19.67;;;;;;;3.69;74.56;98718.69;8332373;28;20636;-76
2020/12/21 02:35:03;;;;;;;21.17;18.97;;;;;;;3.89;73.52;98720.28;8331808;28;20231;-76
2020/12/21 02:39:06;;;;;;;23.27;19.43;;;;;;;3.97;72.82;98715.97;8332547;28;20544;-76
2020/12/21 02:43:08;;;;;;;20.50;18.40;;;;;;;3.90;73.59;98712.59;8332553;28;20204;-76
2020/12/21 02:47:10;;;;;;;19.80;17.83;;;;;;;3.80;74.17;98712.66;8331993;28;20224;-76
2020/12/21 02:51:15;;;;;;;19.97;17.70;;;;;;;4.24;72.77;98714.94;8332062;28;20204;-76
2020/12/21 02:55:17;;;;;;;19.87;17.87;;;;;;;4.23;72.09;98723.50;8332521;28;20563;-76
2020/12/21 02:59:20;;;;;;;20.23;18.13;;;;;;;4.27;72.34;98714.91;8331501;28;20200;-76
2020/12/21 03:03:21;;;;;;;19.70;17.70;;;;;;;4.05;73.37;98724.44;8331270;28;20207;-76
2020/12/21 03:07:23;;;;;;;20.83;18.30;;;;;;;4.27;72.40;98714.06;8331589;28;20702;-76
2020/12/21 03:11:25;;;;;;;21.10;18.80;;;;;;;4.24;72.25;98721.78;8332061;28;20791;-76
2020/12/21 03:15:27;;;;;;;20.07;17.97;;;;;;;4.17;72.55;98722.66;8332910;28;20215;-76
2020/12/21 03:19:29;;;;;;;19.03;17.03;;;;;;;4.16;72.29;98721.81;8332656;28;20267;-76
2020/12/21 03:23:31;;;;;;;21.43;18.57;;;;;;;3.91;73.25;98723.69;8331919;28;20207;-75
2020/12/21 03:27:35;;;;;;;19.10;17.10;;;;;;;4.14;73.00;98715.88;8338041;28;20224;-76
2020/12/21 03:31:36;;;;;;;19.13;16.70;;;;;;;4.09;73.10;98705.66;8337595;28;20696;-76
2020/12/21 03:35:39;;;;;;;19.80;17.70;;;;;;;3.84;73.71;98701.53;8337968;28;20258;-76
2020/12/21 03:39:41;;;;;;;18.30;16.50;;;;;;;4.14;72.68;98699.63;8337380;28;20204;-76
2020/12/21 03:43:43;;;;;;;18.23;16.33;;;;;;;4.18;73.32;98702.16;8338161;28;20525;-75
2020/12/21 03:47:45;;;;;;;17.97;16.17;;;;;;;4.06;73.44;98690.28;8337304;28;20232;-76
2020/12/21 03:51:47;;;;;;;18.30;16.33;;;;;;;4.20;72.95;98691.91;8336999;28;20204;-76
2020/12/21 03:55:48;;;;;;;17.37;15.60;;;;;;;4.47;71.82;98684.00;8337340;28;20212;-75
2020/12/21 03:59:51;;;;;;;17.70;15.80;;;;;;;4.40;71.63;98690.03;8336675;28;20205;-75
2020/12/21 04:03:53;;;;;;;17.73;15.83;;;;;;;4.18;72.33;98707.28;8336934;28;20208;-75
2020/12/21 04:07:54;;;;;;;18.03;16.13;;;;;;;4.29;72.05;98700.38;8337269;28;20660;-76
2020/12/21 04:11:56;;;;;;;16.60;14.90;;;;;;;4.19;72.63;98708.13;8336643;28;20240;-76
2020/12/21 04:15:59;;;;;;;16.63;14.77;;;;;;;4.19;72.87;98708.13;8336837;28;20204;-76
2020/12/21 04:20:00;;;;;;;16.73;15.03;;;;;;;4.34;72.04;98715.75;8336950;28;20207;-76
2020/12/21 04:24:02;;;;;;;16.07;14.37;;;;;;;4.43;71.75;98715.66;8336317;28;20214;-76
2020/12/21 04:28:04;;;;;;;17.27;15.47;;;;;;;4.53;71.56;98713.00;8336261;28;20235;-75
2020/12/21 04:32:06;;;;;;;17.53;15.73;;;;;;;4.09;73.07;98722.72;8337450;28;20205;-76
2020/12/21 04:36:09;;;;;;;15.90;14.30;;;;;;;4.40;72.33;98723.38;8337508;28;20212;-76
2020/12/21 04:40:11;;;;;;;16.27;14.63;;;;;;;4.34;71.70;98728.56;8336860;28;20208;-76
2020/12/21 04:44:12;;;;;;;18.63;15.93;;;;;;;4.23;72.28;98722.66;8336010;28;20211;-75
2020/12/21 04:48:16;;;;;;;17.33;15.47;;;;;;;4.41;71.89;98716.53;8335596;28;20203;-76
2020/12/21 04:52:19;;;;;;;18.37;16.23;;;;;;;4.36;72.15;98720.84;8335400;28;20200;-76
2020/12/21 04:56:21;;;;;;;17.23;15.53;;;;;;;4.48;71.36;98711.34;8335305;28;20212;-76
2020/12/21 05:00:24;;;;;;;18.30;16.40;;;;;;;4.23;72.22;98712.41;8334517;28;20207;-75
2020/12/21 05:04:26;;;;;;;18.57;16.40;;;;;;;4.10;72.83;98707.34;8333327;28;20224;-76
2020/12/21 05:08:28;;;;;;;18.13;15.80;;;;;;;4.11;72.95;98716.75;8333381;28;20559;-75
2020/12/21 05:12:30;;;;;;;18.70;15.60;;;;;;;4.35;72.45;98712.28;8332977;28;20228;-75
2020/12/21 05:16:31;;;;;;;17.23;15.43;;;;;;;4.26;72.56;98712.34;8333775;28;20204;-76
2020/12/21 05:20:34;;;;;;;18.63;16.63;;;;;;;3.94;74.11;98715.13;8333808;28;20200;-75
2020/12/21 05:24:36;;;;;;;19.53;17.37;;;;;;;3.51;75.49;98708.50;8332238;28;20224;-76
2020/12/21 05:28:40;;;;;;;19.30;17.20;;;;;;;3.62;75.06;98708.47;8332823;28;20667;-76
2020/12/21 05:32:42;;;;;;;18.93;16.83;;;;;;;4.01;73.22;98692.00;8333038;28;20204;-77
2020/12/21 05:36:45;;;;;;;18.27;16.30;;;;;;;4.17;72.75;98692.78;8332877;28;20227;-77
2020/12/21 05:40:46;;;;;;;21.87;17.57;;;;;;;4.17;72.77;98686.78;8332869;28;20518;-77
2020/12/21 05:44:52;;;;;;;19.23;15.77;;;;;;;4.23;71.94;98687.59;8332573;28;20235;-76
2020/12/21 05:48:56;;;;;;;19.20;16.77;;;;;;;4.25;72.28;98687.59;8333416;28;20544;-76
2020/12/21 05:52:59;;;;;;;20.80;17.90;;;;;;;4.13;72.25;98688.50;8332951;28;20532;-76
2020/12/21 05:57:01;;;;;;;21.03;16.67;;;;;;;4.10;73.08;98689.41;8333882;28;20216;-76
2020/12/21 06:01:05;;;;;;;21.27;18.23;;;;;;;4.17;72.12;98695.34;8333672;28;20204;-76
2020/12/21 06:05:08;;;;;;;19.60;17.40;;;;;;;4.23;72.55;98690.16;8333229;28;20308;-76
2020/12/21 06:09:15;;;;;;;20.73;18.23;;;;;;;4.17;72.90;98709.84;8333219;28;20250;-75
2020/12/21 06:13:19;;;;;;;21.57;18.67;;;;;;;4.04;73.01;98711.66;8333514;28;20258;-76
2020/12/21 06:17:21;;;;;;;21.23;18.57;;;;;;;4.34;72.29;98705.47;8333173;28;20235;-76
2020/12/21 06:21:29;;;;;;;22.23;18.70;;;;;;;4.14;72.33;98703.03;8333037;28;20196;-76
2020/12/21 06:25:32;;;;;;;24.97;20.53;;;;;;;3.85;74.00;98687.84;8332876;28;20695;-76
2020/12/21 06:29:33;;;;;;;21.63;19.30;;;;;;;3.90;74.15;98688.66;8332451;28;20600;-76
2020/12/21 06:33:38;;;;;;;23.03;19.27;;;;;;;4.17;73.01;98702.16;8334444;28;20230;-76
2020/12/21 06:37:39;;;;;;;21.90;19.10;;;;;;;4.34;72.48;98712.31;8334552;28;20240;-76
2020/12/21 06:41:42;;;;;;;25.13;20.43;;;;;;;4.18;72.68;98706.44;8334008;28;20224;-76
2020/12/21 06:45:44;;;;;;;23.47;19.53;;;;;;;4.15;72.63;98711.56;8331659;28;20691;-76
2020/12/21 06:49:45;;;;;;;23.87;20.03;;;;;;;4.28;72.37;98711.50;8329375;28;20227;-76
2020/12/21 06:54:00;;;;;;;24.20;20.47;;;;;;;4.23;72.47;98717.53;8332284;28;20246;-76
2020/12/21 06:58:03;;;;;;;23.53;19.63;;;;;;;4.22;72.74;98718.38;8299102;28;20210;-76
2020/12/21 07:02:09;;;;;;;22.37;19.67;;;;;;;4.38;72.63;98721.66;8311773;28;20227;-76
2020/12/21 07:06:11;;;;;;;24.30;20.33;;;;;;;4.48;71.70;98725.88;8338990;28;20664;-76
2020/12/21 07:10:14;;;;;;;24.43;19.37;;;;;;;4.49;72.06;98714.75;8339146;28;20239;-76
2020/12/21 07:14:18;;;;;;;25.60;21.13;;;;;;;4.53;71.66;98711.28;8337576;28;20240;-75
2020/12/21 07:18:21;;;;;;;26.10;21.60;;;;;;;4.38;72.59;98711.41;8337055;28;20216;-75
2020/12/21 07:22:23;;;;;;;29.80;22.87;;;;;;;3.92;73.70;98708.31;8338131;28;20208;-76
2020/12/21 07:26:26;;;;;;;27.67;21.30;;;;;;;4.16;74.04;98709.00;8337322;28;20228;-76
2020/12/21 07:30:29;;;;;;;28.30;22.13;;;;;;;4.37;72.50;98720.81;8337254;28;20496;-76
2020/12/21 07:34:31;;;;;;;29.20;22.63;;;;;;;4.38;73.09;98708.84;8335773;28;20212;-76
2020/12/21 07:38:32;;;;;;;28.77;22.47;;;;;;;4.21;73.27;98701.31;8336498;28;20273;-76
2020/12/21 07:42:35;;;;;;;26.70;22.03;;;;;;;4.16;74.07;98701.31;8336458;28;20207;-76
2020/12/21 07:46:40;;;;;;;29.20;23.60;;;;;;;4.23;73.71;98705.56;8336582;28;20224;-76
2020/12/21 07:50:42;;;;;;;30.23;23.23;;;;;;;4.19;76.06;98703.00;8336890;28;20208;-77
2020/12/21 07:54:45;;;;;;;32.73;25.13;;;;;;;5.21;72.89;98692.69;8336300;28;20200;-77
2020/12/21 07:58:47;;;;;;;32.20;24.27;;;;;;;4.32;74.45;98686.66;8336007;28;20204;-76
2020/12/21 08:02:50;;;;;;;30.50;23.83;;;;;;;4.28;74.00;98685.00;8336487;28;20265;-76
2020/12/21 08:06:52;;;;;;;32.43;24.43;;;;;;;4.33;74.20;98673.00;8335511;28;20236;-76
2020/12/21 08:10:57;;;;;;;35.00;23.90;;;;;;;4.29;73.76;98663.63;8334621;28;20629;-76
2020/12/21 08:15:00;;;;;;;31.53;24.27;;;;;;;4.21;74.69;98652.59;8334589;28;20562;-76
2020/12/21 08:19:03;;;;;;;33.83;25.13;;;;;;;4.20;75.02;98661.97;8335478;28;20533;-76
2020/12/21 08:23:08;;;;;;;34.53;25.67;;;;;;;3.84;75.92;98663.09;8334908;28;20350;-76
2020/12/21 08:27:18;;;;;;;33.10;24.10;;;;;;;3.94;75.66;98675.00;8335611;28;20278;-77
2020/12/21 08:31:24;;;;;;;28.50;22.90;;;;;;;3.97;75.82;98677.53;8335312;28;20205;-76
2020/12/21 08:35:28;;;;;;;31.33;23.77;;;;;;;4.23;74.75;98679.06;8335590;28;20216;-76
2020/12/21 08:39:30;;;;;;;31.03;23.60;;;;;;;4.27;74.90;98680.75;8335810;28;20227;-76
2020/12/21 08:43:31;;;;;;;28.60;21.97;;;;;;;4.29;74.64;98663.63;8336007;28;20227;-76
2020/12/21 08:47:33;;;;;;;29.40;22.47;;;;;;;4.13;75.33;98664.59;8335690;28;20225;-76
2020/12/21 08:51:36;;;;;;;27.70;22.43;;;;;;;4.35;75.07;98670.41;8336366;28;20239;-76
2020/12/21 08:55:38;;;;;;;33.90;24.57;;;;;;;4.31;74.68;98669.59;8333337;28;20229;-77
2020/12/21 08:59:40;;;;;;;33.40;26.07;;;;;;;4.17;75.52;98673.97;8331873;28;20271;-76
2020/12/21 09:03:42;;;;;;;29.33;23.33;;;;;;;4.32;75.24;98678.97;8334969;28;20572;-76
2020/12/21 09:07:44;;;;;;;30.17;23.80;;;;;;;4.56;74.24;98677.94;8334509;28;20220;-76
2020/12/21 09:11:52;;;;;;;30.87;23.50;;;;;;;4.55;74.35;98673.69;8336365;28;20244;-76
2020/12/21 09:15:54;;;;;;;30.83;23.90;;;;;;;4.77;73.53;98671.75;8336486;28;20605;-75
2020/12/21 09:19:56;;;;;;;33.80;25.30;;;;;;;4.72;73.80;98685.47;8337556;28;20204;-76
2020/12/21 09:24:01;;;;;;;37.87;26.67;;;;;;;4.68;73.88;98676.97;8335177;28;20578;-76
2020/12/21 09:28:04;;;;;;;40.20;28.27;;;;;;;4.55;73.80;98667.66;8334923;28;20256;-77
2020/12/21 09:32:06;;;;;;;36.43;26.70;;;;;;;4.70;74.37;98672.66;8336367;28;20775;-76
2020/12/21 09:36:08;;;;;;;33.10;24.93;;;;;;;4.98;73.34;98668.09;8336433;28;20208;-76
2020/12/21 09:40:11;;;;;;;37.77;25.27;;;;;;;5.01;72.83;98662.97;8336057;28;20679;-77
2020/12/21 09:44:12;;;;;;;32.93;24.83;;;;;;;4.67;74.21;98667.59;8336198;28;20197;-76
2020/12/21 09:48:14;;;;;;;28.23;22.97;;;;;;;4.88;73.73;98666.53;8338437;28;20235;-77
2020/12/21 09:52:16;;;;;;;34.77;24.40;;;;;;;4.93;73.61;98666.47;8334466;28;20201;-76
2020/12/21 09:56:19;;;;;;;32.07;24.27;;;;;;;4.80;73.38;98655.50;8334435;28;20215;-76
2020/12/21 10:00:20;;;;;;;32.83;24.53;;;;;;;4.96;73.36;98649.31;8332603;28;20544;-76
2020/12/21 10:04:22;;;;;;;30.73;24.17;;;;;;;4.79;74.07;98640.94;8335233;28;20207;-75
2020/12/21 10:08:24;;;;;;;30.03;23.80;;;;;;;4.98;73.42;98644.16;8336204;28;20597;-76
2020/12/21 10:12:26;;;;;;;29.77;24.50;;;;;;;4.63;74.75;98647.94;8336292;28;20259;-76
2020/12/21 10:16:28;;;;;;;38.73;25.63;;;;;;;4.58;74.97;98639.44;8333889;28;20629;-76
2020/12/21 10:20:30;;;;;;;31.50;24.60;;;;;;;4.77;74.10;98645.25;8337801;28;20228;-76
2020/12/21 10:24:31;;;;;;;32.47;26.23;;;;;;;4.62;74.41;98634.25;8336063;28;20211;-76
2020/12/21 10:28:34;;;;;;;32.77;25.47;;;;;;;4.82;74.67;98628.09;8335963;28;20231;-76
2020/12/21 10:32:36;;;;;;;34.07;26.37;;;;;;;4.85;74.81;98628.03;8328718;28;20287;-77
2020/12/21 10:36:38;;;;;;;31.50;25.97;;;;;;;5.14;74.05;98626.84;8330826;28;20521;-77
2020/12/21 10:40:40;;;;;;;35.20;26.07;;;;;;;4.84;74.73;98622.06;8332062;28;20205;-76
2020/12/21 10:44:42;;;;;;;35.47;27.30;;;;;;;5.13;73.90;98622.59;8334162;28;20204;-76
2020/12/21 10:48:44;;;;;;;37.13;27.53;;;;;;;4.93;75.40;98623.69;8332861;28;20220;-76
2020/12/21 10:52:45;;;;;;;37.63;29.03;;;;;;;5.15;73.85;98621.72;8335551;28;20193;-76
2020/12/21 10:56:51;;;;;;;34.10;27.13;;;;;;;5.34;73.57;98613.78;8336063;28;20204;-76
2020/12/21 11:00:54;;;;;;;36.53;27.50;;;;;;;5.29;73.88;98604.44;8336037;28;20197;-76
2020/12/21 11:04:56;;;;;;;31.40;25.73;;;;;;;5.39;73.98;98594.03;8334436;28;20570;-76
2020/12/21 11:08:57;;;;;;;32.17;26.67;;;;;;;5.52;73.44;98592.13;8334787;28;20487;-76
2020/12/21 11:12:59;;;;;;;30.20;25.07;;;;;;;5.47;73.66;98587.06;8332286;28;20272;-76
2020/12/21 11:17:02;;;;;;;33.40;26.87;;;;;;;5.39;73.80;98583.75;8330834;28;20215;-76
2020/12/21 11:21:04;;;;;;;36.30;28.70;;;;;;;5.35;74.08;98580.38;8330910;28;20196;-76
2020/12/21 11:25:06;;;;;;;34.97;28.03;;;;;;;5.25;74.46;98574.53;8330606;28;20679;-76
2020/12/21 11:29:07;;;;;;;34.63;27.57;;;;;;;5.42;74.02;98573.44;8331543;28;20667;-76
2020/12/21 11:33:10;;;;;;;33.83;28.13;;;;;;;5.35;74.59;98569.25;8330218;28;20208;-76
2020/12/21 11:37:12;;;;;;;36.10;27.00;;;;;;;5.28;74.98;98563.34;8330255;28;20224;-76
2020/12/21 11:41:14;;;;;;;36.40;28.43;;;;;;;5.40;73.94;98547.75;8329853;28;20201;-76
2020/12/21 11:45:17;;;;;;;33.63;26.40;;;;;;;5.37;74.98;98552.09;8330871;28;20560;-76
2020/12/21 11:49:19;;;;;;;38.23;28.47;;;;;;;5.58;74.01;98554.38;8335924;28;20215;-76
2020/12/21 11:53:21;;;;;;;40.47;31.87;;;;;;;5.65;73.55;98548.28;8334346;28;20207;-76
2020/12/21 11:57:23;;;;;;;41.80;33.07;;;;;;;5.62;74.04;98542.31;8336032;28;20242;-76
2020/12/21 12:01:24;;;;;;;42.80;30.70;;;;;;;5.60;74.16;98546.63;8335699;28;20686;-76
2020/12/21 12:05:27;;;;;;;38.50;30.50;;;;;;;5.62;74.16;98543.16;8338056;28;20248;-76
2020/12/21 12:09:29;;;;;;;39.63;30.73;;;;;;;5.58;75.01;98540.66;8336064;28;20211;-76
2020/12/21 12:13:30;;;;;;;40.20;29.87;;;;;;;5.59;74.46;98532.06;8338918;28;20221;-75
2020/12/21 12:17:32;;;;;;;40.67;32.00;;;;;;;5.73;74.44;98529.28;8339251;28;20203;-77
2020/12/21 12:21:35;;;;;;;40.73;31.07;;;;;;;5.78;74.26;98523.19;8338092;28;20213;-77
2020/12/21 12:25:36;;;;;;;42.87;33.97;;;;;;;5.92;73.82;98517.84;8335621;28;20461;-76
2020/12/21 12:29:38;;;;;;;41.53;33.53;;;;;;;5.93;73.74;98516.97;8330520;28;20427;-76
2020/12/21 12:33:40;;;;;;;52.73;39.83;;;;;;;5.89;74.38;98505.03;8327678;28;20703;-76
2020/12/21 12:37:42;;;;;;;39.63;30.37;;;;;;;5.86;74.10;98499.94;8330959;28;20216;-76
2020/12/21 12:41:44;;;;;;;40.50;30.70;;;;;;;5.56;74.64;98498.72;8335084;28;20220;-76
2020/12/21 12:45:46;;;;;;;38.33;29.73;;;;;;;5.88;74.13;98498.19;8333868;28;20223;-76
2020/12/21 12:49:48;;;;;;;43.53;30.60;;;;;;;5.72;75.00;98491.63;8334620;28;20204;-75
2020/12/21 12:53:50;;;;;;;42.13;31.33;;;;;;;5.90;74.58;98483.59;8334228;28;20630;-75
2020/12/21 12:57:52;;;;;;;42.00;32.33;;;;;;;5.58;75.50;98477.28;8332481;28;20223;-76
2020/12/21 13:01:54;;;;;;;43.00;32.37;;;;;;;5.76;74.92;98478.69;8334852;28;20251;-76
2020/12/21 13:05:56;;;;;;;44.87;32.83;;;;;;;5.97;74.71;98481.81;8334048;28;20236;-77
2020/12/21 13:09:58;;;;;;;41.57;31.43;;;;;;;5.75;75.47;98469.28;8334525;28;20201;-76
2020/12/21 13:14:00;;;;;;;42.80;31.63;;;;;;;5.81;75.23;98466.63;8333520;28;20298;-76
2020/12/21 13:18:02;;;;;;;43.17;31.97;;;;;;;5.93;75.07;98472.41;8333491;28;20197;-76
2020/12/21 13:22:06;;;;;;;41.97;30.70;;;;;;;6.15;74.55;98457.47;8333041;28;20192;-76
2020/12/21 13:26:13;;;;;;;41.55;35.10;;;;;;;6.51;72.78;98453.38;8333921;28;20534;-76
2020/12/21 13:30:15;;;;;;;45.30;33.53;;;;;;;6.17;74.45;98451.44;8333694;28;20200;-76
2020/12/21 13:34:20;;;;;;;42.07;30.30;;;;;;;6.37;73.54;98439.91;8333072;28;20574;-76
2020/12/21 13:38:22;;;;;;;40.53;30.83;;;;;;;6.03;74.95;98446.53;8333149;28;20209;-76
2020/12/21 13:42:24;;;;;;;42.70;32.67;;;;;;;6.01;75.13;98435.44;8332461;28;20204;-76
2020/12/21 13:46:26;;;;;;;45.93;33.10;;;;;;;6.03;75.34;98432.84;8333151;28;20220;-76
2020/12/21 13:50:28;;;;;;;43.67;31.87;;;;;;;6.16;74.94;98434.31;8332862;28;20203;-76
2020/12/21 13:54:30;;;;;;;41.63;33.03;;;;;;;6.26;74.65;98422.09;8332990;28;20211;-76
2020/12/21 13:58:33;;;;;;;41.67;31.37;;;;;;;6.17;74.96;98432.56;8334226;28;20204;-76
2020/12/21 14:02:35;;;;;;;41.67;31.23;;;;;;;6.14;75.48;98417.22;8333041;28;20562;-76
2020/12/21 14:06:37;;;;;;;46.50;33.20;;;;;;;6.17;75.08;98412.88;8332385;28;20259;-76
2020/12/21 14:10:40;;;;;;;46.87;33.37;;;;;;;6.14;74.82;98409.50;8334112;28;20538;-76
2020/12/21 14:14:42;;;;;;;44.23;32.53;;;;;;;6.04;75.76;98412.25;8332845;28;20231;-76
2020/12/21 14:18:44;;;;;;;47.03;33.23;;;;;;;6.01;75.62;98414.03;8321269;28;20567;-76
2020/12/21 14:22:46;;;;;;;45.30;32.70;;;;;;;6.06;75.35;98404.50;8333226;28;20232;-76
2020/12/21 14:26:48;;;;;;;42.33;31.17;;;;;;;6.10;75.04;98407.88;8333087;28;20239;-76
2020/12/21 14:30:50;;;;;;;40.53;30.13;;;;;;;5.98;75.45;98409.78;8332794;28;20640;-76
2020/12/21 14:34:52;;;;;;;39.47;29.77;;;;;;;6.06;74.85;98402.78;8333046;28;20204;-76
2020/12/21 14:38:54;;;;;;;39.60;30.10;;;;;;;5.87;75.71;98394.53;8332318;28;20683;-76
2020/12/21 14:42:56;;;;;;;40.20;29.83;;;;;;;5.93;75.49;98385.84;8331958;28;20200;-76
2020/12/21 14:46:58;;;;;;;40.63;29.20;;;;;;;5.95;75.52;98384.13;8331891;28;20228;-76
2020/12/21 14:51:00;;;;;;;41.35;34.47;;;;;;;6.37;73.90;98376.44;8332901;28;20430;-76
2020/12/21 14:55:02;;;;;;;73.00;48.67;;;;;;;6.05;75.27;98371.94;8332455;28;20675;-76
2020/12/21 14:59:04;;;;;;;74.97;52.10;;;;;;;6.41;74.00;98356.66;8331260;28;20513;-76
2020/12/21 15:03:08;;;;;;;62.53;41.27;;;;;;;6.13;74.84;98346.06;8331491;28;20212;-76
2020/12/21 15:07:09;;;;;;;42.70;32.87;;;;;;;6.12;75.03;98339.25;8331907;28;20235;-76
2020/12/21 15:11:11;;;;;;;26.13;22.00;;;;;;;6.25;74.55;98328.66;8331814;28;20271;-76
2020/12/21 15:15:13;;;;;;;29.33;24.20;;;;;;;6.29;74.32;98332.03;8331292;28;20207;-76
2020/12/21 15:19:17;;;;;;;32.83;26.73;;;;;;;6.21;74.49;98318.50;8331536;28;20208;-76
2020/12/21 15:23:19;;;;;;;33.13;27.27;;;;;;;6.22;74.73;98320.16;8337401;28;20200;-76
2020/12/21 15:27:20;;;;;;;30.47;23.80;;;;;;;6.33;74.15;98332.81;8338108;28;20229;-76
2020/12/21 15:31:22;;;;;;;26.43;21.83;;;;;;;6.34;74.37;98325.06;8337122;28;20603;-76
2020/12/21 15:35:25;;;;;;;28.77;22.63;;;;;;;6.38;73.93;98323.28;8335955;28;20636;-76
2020/12/21 15:39:26;;;;;;;27.50;21.83;;;;;;;6.38;74.04;98315.56;8335886;28;20192;-77
2020/12/21 15:43:28;;;;;;;30.43;24.17;;;;;;;6.26;74.39;98314.94;8336262;28;20675;-77
2020/12/21 15:47:30;;;;;;;29.10;23.57;;;;;;;6.14;74.73;98304.06;8336397;28;20227;-76
2020/12/21 15:51:32;;;;;;;29.93;22.53;;;;;;;6.25;74.48;98304.69;8335753;28;20228;-76
2020/12/21 15:55:34;;;;;;;28.83;23.90;;;;;;;6.21;74.75;98310.78;8335921;28;20882;-76
2020/12/21 15:59:36;;;;;;;30.63;25.80;;;;;;;6.10;74.88;98305.84;8335304;28;20197;-76
2020/12/21 16:03:38;;;;;;;34.13;27.17;;;;;;;6.09;75.18;98290.44;8336135;28;20219;-76
2020/12/21 16:07:41;;;;;;;34.53;27.20;;;;;;;6.13;74.91;98286.94;8334966;28;20212;-76
2020/12/21 16:11:43;;;;;;;32.27;25.17;;;;;;;6.11;74.97;98291.25;8334685;28;20224;-76
2020/12/21 16:15:47;;;;;;;43.53;33.30;;;;;;;6.19;74.39;98279.09;8335249;28;20212;-76
2020/12/21 16:19:49;;;;;;;33.87;26.77;;;;;;;6.07;74.74;98285.34;8303084;28;20244;-76
2020/12/21 16:23:51;;;;;;;29.13;22.37;;;;;;;6.02;75.43;98290.59;8334634;28;20205;-76
2020/12/21 16:27:53;;;;;;;25.17;20.97;;;;;;;6.03;75.63;98286.28;8335748;28;20297;-76
2020/12/21 16:31:55;;;;;;;26.50;20.97;;;;;;;6.08;74.84;98284.47;8334740;28;20516;-76
2020/12/21 16:35:57;;;;;;;26.33;20.57;;;;;;;6.07;74.92;98281.06;8328349;28;20963;-76
2020/12/21 16:39:59;;;;;;;27.67;23.15;;;;;;;6.39;73.21;98279.50;8333148;28;20419;-76
2020/12/21 16:44:01;;;;;;;25.53;20.70;;;;;;;6.23;74.38;98275.59;8336164;28;20212;-76
2020/12/21 16:48:04;;;;;;;26.43;20.17;;;;;;;6.29;74.23;98275.44;8336490;28;20231;-77
2020/12/21 16:52:06;;;;;;;24.23;19.97;;;;;;;6.05;75.05;98272.53;8336926;28;20726;-77
2020/12/21 16:56:09;;;;;;;29.50;23.30;;;;;;;6.67;72.82;98271.16;8334187;28;20426;-77
2020/12/21 17:00:10;;;;;;;23.97;19.70;;;;;;;6.29;73.93;98275.44;8333574;28;20232;-77
2020/12/21 17:04:12;;;;;;;25.83;20.67;;;;;;;6.21;74.37;98269.63;8328367;28;20849;-77
2020/12/21 17:08:14;;;;;;;22.23;18.60;;;;;;;6.52;73.37;98285.22;8330607;28;20243;-77
2020/12/21 17:12:16;;;;;;;24.07;19.87;;;;;;;6.30;74.05;98271.13;8333300;28;20236;-77
2020/12/21 17:16:19;;;;;;;23.80;19.87;;;;;;;6.31;73.99;98270.28;8334611;28;20243;-77
2020/12/21 17:20:21;;;;;;;26.08;22.17;;;;;;;6.89;71.86;98280.91;8332859;28;20438;-77
2020/12/21 17:24:23;;;;;;;30.43;24.77;;;;;;;6.47;73.40;98276.75;8333409;28;20220;-77
2020/12/21 17:28:25;;;;;;;24.13;20.17;;;;;;;6.46;73.83;98275.06;8335469;28;20224;-77
2020/12/21 17:32:27;;;;;;;26.83;22.43;;;;;;;6.47;73.81;98263.88;8333018;28;20431;-77
2020/12/21 17:36:32;;;;;;;23.70;19.20;;;;;;;6.33;74.54;98265.94;8333997;28;20208;-78
2020/12/21 17:40:34;;;;;;;26.17;19.93;;;;;;;6.32;74.17;98259.09;8334016;28;20205;-78
2020/12/21 17:44:38;;;;;;;27.60;19.97;;;;;;;6.45;74.02;98255.34;8333181;28;20311;-78
2020/12/21 17:48:40;;;;;;;22.93;18.50;;;;;;;6.49;73.97;98244.09;8330457;28;20223;-77
2020/12/21 17:52:42;;;;;;;24.03;19.63;;;;;;;6.35;74.71;98233.31;8333353;28;20200;-77
2020/12/21 17:56:43;;;;;;;23.43;19.20;;;;;;;6.48;74.01;98242.44;8334356;28;20664;-78
2020/12/21 18:00:46;;;;;;;24.60;19.30;;;;;;;6.53;73.80;98237.16;8332957;28;20192;-77
2020/12/21 18:04:48;;;;;;;24.90;19.67;;;;;;;6.42;73.96;98233.13;8331654;28;20192;-77
2020/12/21 18:08:50;;;;;;;25.70;21.20;;;;;;;6.28;74.74;98218.88;8331951;28;20220;-78
2020/12/21 18:12:52;;;;;;;24.63;20.60;;;;;;;6.41;74.36;98210.84;8334729;28;20236;-79
2020/12/21 18:16:54;;;;;;;23.73;19.20;;;;;;;6.18;74.26;98213.94;8333407;28;20200;-77
2020/12/21 18:20:57;;;;;;;39.67;25.47;;;;;;;6.23;74.75;98211.28;8332628;28;20637;-78
2020/12/21 18:24:59;;;;;;;45.10;29.07;;;;;;;6.28;74.53;98206.03;8332385;28;20200;-78
2020/12/21 18:29:01;;;;;;;61.15;40.60;;;;;;;6.34;74.29;98199.03;8329994;28;20919;-78
2020/12/21 18:33:06;;;;;;;33.23;24.03;;;;;;;6.07;75.69;98193.63;8331445;28;20208;-78
2020/12/21 18:37:07;;;;;;;50.57;33.30;;;;;;;6.01;75.39;98192.91;8331807;28;20220;-78
2020/12/21 18:41:09;;;;;;;38.53;28.53;;;;;;;6.02;75.37;98179.19;8332039;28;20215;-78
2020/12/21 18:45:11;;;;;;;34.00;26.40;;;;;;;6.17;75.46;98172.81;8331572;28;20204;-78